Allison, IA

12:02 PM CST on November 28, 2014 (GMT -0600)
Wartburg College Observatory | Change Station
CLOSE
Current Station
Personal Weather Station
Location: Waverly, IA
Elevation: 928 ft
Nearby Weather Stations

Elev 928 ft 42.73 °N, 92.49 °W | Updated 4 seconds ago

Partly Cloudy
Partly Cloudy
25.5 °F
Feels Like 15 °F
N
11.5
Wind Variable Wind from SE
Gusts 11.5 mph

Today
High -- | Low -- °F
--% Chance of Precip.
Yesterday
High -- | Low -- °F
Precip. -- in
7:18 AM 4:39 PM
Waxing Crescent, 42% visible
Pressure 29.91 in
Visibility 10.0 miles
Clouds Scattered Clouds 12000 ft
Windchill 15 °F
Dew Point 21 °F
Humidity 83%
Rainfall 0.00 in
Snow Depth Not available.
UV 1.8 out of 12
Pollen .10 out of 12
Air Quality Not available.
Flu Activity Not available.
METAR KCCY 281755Z AUTO 14010KT 10SM SCT120 M05/M08 A2991 RMK AO2

More Conditions Fewer Conditions

Pressure 29.91 in
Visibility 10.0 miles
Clouds Scattered Clouds 12000 ft
Windchill 15 °F
Dew Point 21 °F
Humidity 83%
Rainfall 0.00 in
Snow Depth Not available.
UV 1.8 out of 12
Pollen .10 out of 12
Air Quality Not available.
Flu Activity Not available.
METAR KCCY 281755Z AUTO 14010KT 10SM SCT120 M05/M08 A2991 RMK AO2

More Conditions Fewer Conditions

10-Day Weather Forecast

Almanac

Astronomy

Nov. 28, 2014 Rise Set
Actual Time
Civil Twilight
Nautical Twilight
Astronomical Twilight
Moon
Length of Visible Light
Length of Day
Tomorrow will be .
, % of the Moon is Illuminated

Today's Extremes

State Highs State Lows

Community

WunderPhotos

Upload Photos

1,774,246 photos uploaded!

WunderBlogs® & News

Nearby

Air Quality

  Air Quality AQ Index Pollutant
Not available.

Snow Depth

Station Depth Elevation

Earthquake Activity

City Distance Mag. Time & Date
Minimum magnitude displayed is 2.5.

Coastal Water Temperatures

Place Temperature

Nearby Weather Stations